sensor_id;sensor_type;location;lat;lon;timestamp;temperature;humidity
21616;DHT22;10970;48.714;9.584;2022-07-11T00:02:03;13.60;99.90
21616;DHT22;10970;48.714;9.584;2022-07-11T00:04:30;13.60;99.90
21616;DHT22;10970;48.714;9.584;2022-07-11T00:06:56;13.60;99.90
21616;DHT22;10970;48.714;9.584;2022-07-11T00:09:22;13.50;99.90
21616;DHT22;10970;48.714;9.584;2022-07-11T00:11:48;13.50;99.90
21616;DHT22;10970;48.714;9.584;2022-07-11T00:14:15;13.60;99.90
21616;DHT22;10970;48.714;9.584;2022-07-11T00:16:41;13.60;99.90
21616;DHT22;10970;48.714;9.584;2022-07-11T00:19:06;13.60;99.90
21616;DHT22;10970;48.714;9.584;2022-07-11T00:21:32;13.60;99.90
21616;DHT22;10970;48.714;9.584;2022-07-11T00:24:00;13.60;99.90
21616;DHT22;10970;48.714;9.584;2022-07-11T00:26:26;13.70;99.90
21616;DHT22;10970;48.714;9.584;2022-07-11T00:28:51;13.70;99.90
21616;DHT22;10970;48.714;9.584;2022-07-11T00:31:17;13.60;99.90
21616;DHT22;10970;48.714;9.584;2022-07-11T00:33:43;13.60;99.90
21616;DHT22;10970;48.714;9.584;2022-07-11T00:36:08;13.70;99.90
21616;DHT22;10970;48.714;9.584;2022-07-11T00:38:34;13.70;99.90
21616;DHT22;10970;48.714;9.584;2022-07-11T00:41:00;13.60;99.90
21616;DHT22;10970;48.714;9.584;2022-07-11T00:43:30;13.60;99.90
21616;DHT22;10970;48.714;9.584;2022-07-11T00:45:56;13.70;99.90
21616;DHT22;10970;48.714;9.584;2022-07-11T00:48:22;13.70;99.90
21616;DHT22;10970;48.714;9.584;2022-07-11T00:50:47;13.70;99.90
21616;DHT22;10970;48.714;9.584;2022-07-11T00:53:13;13.70;99.90
21616;DHT22;10970;48.714;9.584;2022-07-11T00:55:40;13.70;99.90
21616;DHT22;10970;48.714;9.584;2022-07-11T00:58:06;13.70;99.90
21616;DHT22;10970;48.714;9.584;2022-07-11T01:00:33;13.70;99.90
21616;DHT22;10970;48.714;9.584;2022-07-11T01:02:58;13.70;99.90
21616;DHT22;10970;48.714;9.584;2022-07-11T01:05:24;13.70;99.90
21616;DHT22;10970;48.714;9.584;2022-07-11T01:07:50;13.60;99.90
21616;DHT22;10970;48.714;9.584;2022-07-11T01:10:15;13.60;99.90
21616;DHT22;10970;48.714;9.584;2022-07-11T01:12:41;13.70;99.90
21616;DHT22;10970;48.714;9.584;2022-07-11T01:15:07;13.60;99.90
21616;DHT22;10970;48.714;9.584;2022-07-11T01:17:33;13.60;99.90
21616;DHT22;10970;48.714;9.584;2022-07-11T01:19:59;13.60;99.90
21616;DHT22;10970;48.714;9.584;2022-07-11T01:22:28;13.60;99.90
21616;DHT22;10970;48.714;9.584;2022-07-11T01:24:54;13.60;99.90
21616;DHT22;10970;48.714;9.584;2022-07-11T01:27:20;13.60;99.90
21616;DHT22;10970;48.714;9.584;2022-07-11T01:29:47;13.50;99.90
21616;DHT22;10970;48.714;9.584;2022-07-11T01:32:13;13.50;99.90
21616;DHT22;10970;48.714;9.584;2022-07-11T01:34:38;13.50;99.90
21616;DHT22;10970;48.714;9.584;2022-07-11T01:37:04;13.60;99.90
21616;DHT22;10970;48.714;9.584;2022-07-11T01:39:29;13.60;99.90
21616;DHT22;10970;48.714;9.584;2022-07-11T01:41:58;13.60;99.90
21616;DHT22;10970;48.714;9.584;2022-07-11T01:44:25;13.60;99.90
21616;DHT22;10970;48.714;9.584;2022-07-11T01:46:50;13.60;99.90
21616;DHT22;10970;48.714;9.584;2022-07-11T01:49:16;13.60;99.90
21616;DHT22;10970;48.714;9.584;2022-07-11T01:51:42;13.60;99.90
21616;DHT22;10970;48.714;9.584;2022-07-11T01:54:07;13.50;99.90
21616;DHT22;10970;48.714;9.584;2022-07-11T01:56:33;13.60;99.90
21616;DHT22;10970;48.714;9.584;2022-07-11T01:58:59;13.50;99.90
21616;DHT22;10970;48.714;9.584;2022-07-11T02:01:25;13.50;99.90
21616;DHT22;10970;48.714;9.584;2022-07-11T02:03:52;13.50;99.90
21616;DHT22;10970;48.714;9.584;2022-07-11T02:06:18;13.50;99.90
21616;DHT22;10970;48.714;9.584;2022-07-11T02:08:43;13.50;99.90
21616;DHT22;10970;48.714;9.584;2022-07-11T02:11:09;13.50;99.90
21616;DHT22;10970;48.714;9.584;2022-07-11T02:13:35;13.50;99.90
21616;DHT22;10970;48.714;9.584;2022-07-11T02:16:00;13.50;99.90
21616;DHT22;10970;48.714;9.584;2022-07-11T02:18:28;13.50;99.90
21616;DHT22;10970;48.714;9.584;2022-07-11T02:20:53;13.40;99.90
21616;DHT22;10970;48.714;9.584;2022-07-11T02:23:20;13.40;99.90
21616;DHT22;10970;48.714;9.584;2022-07-11T02:25:46;13.40;99.90
21616;DHT22;10970;48.714;9.584;2022-07-11T02:28:12;13.40;99.90
21616;DHT22;10970;48.714;9.584;2022-07-11T02:30:40;13.40;99.90
21616;DHT22;10970;48.714;9.584;2022-07-11T02:33:06;13.40;99.90
21616;DHT22;10970;48.714;9.584;2022-07-11T02:35:39;13.40;99.90
21616;DHT22;10970;48.714;9.584;2022-07-11T02:38:04;13.40;99.90
21616;DHT22;10970;48.714;9.584;2022-07-11T02:40:30;13.40;99.90
21616;DHT22;10970;48.714;9.584;2022-07-11T02:42:56;13.40;99.90
21616;DHT22;10970;48.714;9.584;2022-07-11T02:45:22;13.40;99.90
21616;DHT22;10970;48.714;9.584;2022-07-11T02:47:47;13.40;99.90
21616;DHT22;10970;48.714;9.584;2022-07-11T02:50:14;13.40;99.90
21616;DHT22;10970;48.714;9.584;2022-07-11T02:52:41;13.40;99.90
21616;DHT22;10970;48.714;9.584;2022-07-11T02:55:08;13.40;99.90
21616;DHT22;10970;48.714;9.584;2022-07-11T02:57:35;13.40;99.90
21616;DHT22;10970;48.714;9.584;2022-07-11T03:00:02;13.40;99.90
21616;DHT22;10970;48.714;9.584;2022-07-11T03:02:29;13.40;99.90
21616;DHT22;10970;48.714;9.584;2022-07-11T03:04:54;13.50;99.90
21616;DHT22;10970;48.714;9.584;2022-07-11T03:07:20;13.40;99.90
21616;DHT22;10970;48.714;9.584;2022-07-11T03:09:46;13.40;99.90
21616;DHT22;10970;48.714;9.584;2022-07-11T03:12:11;13.40;99.90
21616;DHT22;10970;48.714;9.584;2022-07-11T03:14:37;13.40;99.90
21616;DHT22;10970;48.714;9.584;2022-07-11T03:17:03;13.40;99.90
21616;DHT22;10970;48.714;9.584;2022-07-11T03:19:28;13.50;99.90
21616;DHT22;10970;48.714;9.584;2022-07-11T03:21:54;13.60;99.90
21616;DHT22;10970;48.714;9.584;2022-07-11T03:24:20;13.60;99.90
21616;DHT22;10970;48.714;9.584;2022-07-11T03:26:45;13.60;99.90
21616;DHT22;10970;48.714;9.584;2022-07-11T03:29:11;13.60;99.90
21616;DHT22;10970;48.714;9.584;2022-07-11T03:31:36;13.50;99.90
21616;DHT22;10970;48.714;9.584;2022-07-11T03:34:02;13.60;99.90
21616;DHT22;10970;48.714;9.584;2022-07-11T03:36:28;13.60;99.90
21616;DHT22;10970;48.714;9.584;2022-07-11T03:38:53;13.60;99.90
21616;DHT22;10970;48.714;9.584;2022-07-11T03:41:19;13.50;99.90
21616;DHT22;10970;48.714;9.584;2022-07-11T03:43:44;13.50;99.90
21616;DHT22;10970;48.714;9.584;2022-07-11T03:46:10;13.50;99.90
21616;DHT22;10970;48.714;9.584;2022-07-11T03:48:36;13.50;99.90
21616;DHT22;10970;48.714;9.584;2022-07-11T03:51:01;13.50;99.90
21616;DHT22;10970;48.714;9.584;2022-07-11T03:53:27;13.50;99.90
21616;DHT22;10970;48.714;9.584;2022-07-11T03:55:53;13.50;99.90
21616;DHT22;10970;48.714;9.584;2022-07-11T03:58:18;13.50;99.90
21616;DHT22;10970;48.714;9.584;2022-07-11T04:00:44;13.50;99.90
21616;DHT22;10970;48.714;9.584;2022-07-11T04:03:10;13.50;99.90
21616;DHT22;10970;48.714;9.584;2022-07-11T04:05:36;13.60;99.90
21616;DHT22;10970;48.714;9.584;2022-07-11T04:08:01;13.70;99.90
21616;DHT22;10970;48.714;9.584;2022-07-11T04:10:28;13.70;99.90
21616;DHT22;10970;48.714;9.584;2022-07-11T04:12:53;13.70;99.90
21616;DHT22;10970;48.714;9.584;2022-07-11T04:15:19;13.80;99.90
21616;DHT22;10970;48.714;9.584;2022-07-11T04:17:45;13.80;99.90
21616;DHT22;10970;48.714;9.584;2022-07-11T04:20:11;13.80;99.90
21616;DHT22;10970;48.714;9.584;2022-07-11T04:22:37;13.90;99.90
21616;DHT22;10970;48.714;9.584;2022-07-11T04:25:03;14.00;99.90
21616;DHT22;10970;48.714;9.584;2022-07-11T04:27:29;14.10;99.90
21616;DHT22;10970;48.714;9.584;2022-07-11T04:29:55;14.10;99.90
21616;DHT22;10970;48.714;9.584;2022-07-11T04:32:20;14.10;99.90
21616;DHT22;10970;48.714;9.584;2022-07-11T04:34:46;14.10;99.90
21616;DHT22;10970;48.714;9.584;2022-07-11T04:37:12;14.20;99.90
21616;DHT22;10970;48.714;9.584;2022-07-11T04:39:38;14.20;99.90
21616;DHT22;10970;48.714;9.584;2022-07-11T04:42:04;14.20;99.90
21616;DHT22;10970;48.714;9.584;2022-07-11T04:44:32;14.30;99.90
21616;DHT22;10970;48.714;9.584;2022-07-11T04:46:58;14.40;99.90
21616;DHT22;10970;48.714;9.584;2022-07-11T04:49:24;14.40;99.90
21616;DHT22;10970;48.714;9.584;2022-07-11T04:51:50;14.30;99.90
21616;DHT22;10970;48.714;9.584;2022-07-11T04:54:15;14.40;99.90
21616;DHT22;10970;48.714;9.584;2022-07-11T04:56:42;14.40;99.90
21616;DHT22;10970;48.714;9.584;2022-07-11T04:59:07;14.40;99.90
21616;DHT22;10970;48.714;9.584;2022-07-11T05:01:34;14.40;99.90
21616;DHT22;10970;48.714;9.584;2022-07-11T05:04:00;14.50;99.90
21616;DHT22;10970;48.714;9.584;2022-07-11T05:06:26;14.60;99.90
21616;DHT22;10970;48.714;9.584;2022-07-11T05:08:52;14.70;99.90
21616;DHT22;10970;48.714;9.584;2022-07-11T05:11:19;14.80;99.90
21616;DHT22;10970;48.714;9.584;2022-07-11T05:13:45;14.80;99.90
21616;DHT22;10970;48.714;9.584;2022-07-11T05:16:11;14.80;99.90
21616;DHT22;10970;48.714;9.584;2022-07-11T05:18:37;15.00;99.90
21616;DHT22;10970;48.714;9.584;2022-07-11T05:21:03;14.90;99.90
21616;DHT22;10970;48.714;9.584;2022-07-11T05:23:28;14.90;99.90
21616;DHT22;10970;48.714;9.584;2022-07-11T05:25:54;14.90;99.90
21616;DHT22;10970;48.714;9.584;2022-07-11T05:28:20;15.10;99.90
21616;DHT22;10970;48.714;9.584;2022-07-11T05:30:45;15.20;99.90
21616;DHT22;10970;48.714;9.584;2022-07-11T05:33:11;15.30;99.90
21616;DHT22;10970;48.714;9.584;2022-07-11T05:35:36;15.30;99.90
21616;DHT22;10970;48.714;9.584;2022-07-11T05:38:02;15.30;99.90
21616;DHT22;10970;48.714;9.584;2022-07-11T05:40:28;15.30;99.90
21616;DHT22;10970;48.714;9.584;2022-07-11T05:42:53;15.40;99.90
21616;DHT22;10970;48.714;9.584;2022-07-11T05:45:19;15.60;99.90
21616;DHT22;10970;48.714;9.584;2022-07-11T05:47:45;15.50;99.90
21616;DHT22;10970;48.714;9.584;2022-07-11T05:50:10;15.60;99.90
21616;DHT22;10970;48.714;9.584;2022-07-11T05:52:36;15.60;99.90
21616;DHT22;10970;48.714;9.584;2022-07-11T05:55:02;15.60;99.90
21616;DHT22;10970;48.714;9.584;2022-07-11T05:57:27;15.70;99.90
21616;DHT22;10970;48.714;9.584;2022-07-11T05:59:54;15.80;99.90
21616;DHT22;10970;48.714;9.584;2022-07-11T06:02:20;15.90;99.90
21616;DHT22;10970;48.714;9.584;2022-07-11T06:04:45;15.90;99.90
21616;DHT22;10970;48.714;9.584;2022-07-11T06:07:11;16.00;99.90
21616;DHT22;10970;48.714;9.584;2022-07-11T06:09:37;16.10;99.90
21616;DHT22;10970;48.714;9.584;2022-07-11T06:12:03;16.40;99.90
21616;DHT22;10970;48.714;9.584;2022-07-11T06:14:29;16.30;99.90
21616;DHT22;10970;48.714;9.584;2022-07-11T06:16:54;16.50;99.90
21616;DHT22;10970;48.714;9.584;2022-07-11T06:19:20;16.60;99.90
21616;DHT22;10970;48.714;9.584;2022-07-11T06:21:46;16.80;99.90
21616;DHT22;10970;48.714;9.584;2022-07-11T06:24:11;16.80;99.90
21616;DHT22;10970;48.714;9.584;2022-07-11T06:26:37;17.00;99.90
21616;DHT22;10970;48.714;9.584;2022-07-11T06:29:03;16.90;99.90
21616;DHT22;10970;48.714;9.584;2022-07-11T06:31:29;17.00;99.90
21616;DHT22;10970;48.714;9.584;2022-07-11T06:33:55;17.10;99.90
21616;DHT22;10970;48.714;9.584;2022-07-11T06:36:26;17.20;99.90
21616;DHT22;10970;48.714;9.584;2022-07-11T06:38:52;17.30;99.90
21616;DHT22;10970;48.714;9.584;2022-07-11T06:41:18;17.30;99.90
21616;DHT22;10970;48.714;9.584;2022-07-11T06:43:44;17.20;99.90
21616;DHT22;10970;48.714;9.584;2022-07-11T06:46:09;17.10;99.90
21616;DHT22;10970;48.714;9.584;2022-07-11T06:48:35;17.00;99.90
21616;DHT22;10970;48.714;9.584;2022-07-11T06:51:01;17.10;99.90
21616;DHT22;10970;48.714;9.584;2022-07-11T06:53:27;17.20;99.90
21616;DHT22;10970;48.714;9.584;2022-07-11T06:55:52;17.40;99.90
21616;DHT22;10970;48.714;9.584;2022-07-11T06:58:18;17.60;99.90
21616;DHT22;10970;48.714;9.584;2022-07-11T07:01:04;17.80;99.90
21616;DHT22;10970;48.714;9.584;2022-07-11T07:03:31;17.80;99.90
21616;DHT22;10970;48.714;9.584;2022-07-11T07:05:58;17.80;99.90
21616;DHT22;10970;48.714;9.584;2022-07-11T07:08:25;17.90;99.90
21616;DHT22;10970;48.714;9.584;2022-07-11T07:10:51;18.20;99.90
21616;DHT22;10970;48.714;9.584;2022-07-11T07:13:17;18.40;99.90
21616;DHT22;10970;48.714;9.584;2022-07-11T07:15:43;18.40;99.90
21616;DHT22;10970;48.714;9.584;2022-07-11T07:18:09;18.50;99.90
21616;DHT22;10970;48.714;9.584;2022-07-11T07:20:34;18.70;99.90
21616;DHT22;10970;48.714;9.584;2022-07-11T07:23:00;18.90;99.90
21616;DHT22;10970;48.714;9.584;2022-07-11T07:25:26;18.80;99.90
21616;DHT22;10970;48.714;9.584;2022-07-11T07:27:51;19.00;99.90
21616;DHT22;10970;48.714;9.584;2022-07-11T07:30:17;19.20;99.90
21616;DHT22;10970;48.714;9.584;2022-07-11T07:32:43;19.30;99.90
21616;DHT22;10970;48.714;9.584;2022-07-11T07:35:09;19.40;99.90
21616;DHT22;10970;48.714;9.584;2022-07-11T07:37:34;19.40;99.90
21616;DHT22;10970;48.714;9.584;2022-07-11T07:40:00;19.40;99.90
21616;DHT22;10970;48.714;9.584;2022-07-11T07:42:26;19.50;99.90
21616;DHT22;10970;48.714;9.584;2022-07-11T07:44:52;19.90;99.90
21616;DHT22;10970;48.714;9.584;2022-07-11T07:47:17;20.10;99.90
21616;DHT22;10970;48.714;9.584;2022-07-11T07:49:43;20.20;99.90
21616;DHT22;10970;48.714;9.584;2022-07-11T07:52:09;20.60;99.90
21616;DHT22;10970;48.714;9.584;2022-07-11T07:54:34;21.20;99.90
21616;DHT22;10970;48.714;9.584;2022-07-11T07:57:00;21.80;99.90
21616;DHT22;10970;48.714;9.584;2022-07-11T07:59:26;21.60;99.90
21616;DHT22;10970;48.714;9.584;2022-07-11T08:01:52;21.60;99.90
21616;DHT22;10970;48.714;9.584;2022-07-11T08:04:17;21.80;99.90
21616;DHT22;10970;48.714;9.584;2022-07-11T08:06:43;21.80;99.90
21616;DHT22;10970;48.714;9.584;2022-07-11T08:09:09;22.20;99.90
21616;DHT22;10970;48.714;9.584;2022-07-11T08:11:35;22.70;99.90
21616;DHT22;10970;48.714;9.584;2022-07-11T08:14:02;22.80;99.90
21616;DHT22;10970;48.714;9.584;2022-07-11T08:16:29;22.90;99.90
21616;DHT22;10970;48.714;9.584;2022-07-11T08:18:55;22.80;99.90
21616;DHT22;10970;48.714;9.584;2022-07-11T08:21:22;23.00;99.90
21616;DHT22;10970;48.714;9.584;2022-07-11T08:23:47;22.50;99.90
21616;DHT22;10970;48.714;9.584;2022-07-11T08:26:13;23.30;99.90
21616;DHT22;10970;48.714;9.584;2022-07-11T08:28:39;23.70;99.90
21616;DHT22;10970;48.714;9.584;2022-07-11T08:31:04;23.70;99.90
21616;DHT22;10970;48.714;9.584;2022-07-11T08:33:30;24.40;99.90
21616;DHT22;10970;48.714;9.584;2022-07-11T08:35:56;24.10;99.90
21616;DHT22;10970;48.714;9.584;2022-07-11T08:38:22;24.00;99.90
21616;DHT22;10970;48.714;9.584;2022-07-11T08:40:51;24.00;99.90
21616;DHT22;10970;48.714;9.584;2022-07-11T08:43:18;24.10;99.90
21616;DHT22;10970;48.714;9.584;2022-07-11T08:45:47;24.00;99.90
21616;DHT22;10970;48.714;9.584;2022-07-11T08:48:13;23.70;99.90
21616;DHT22;10970;48.714;9.584;2022-07-11T08:50:39;23.60;99.90
21616;DHT22;10970;48.714;9.584;2022-07-11T08:53:05;24.30;99.90
21616;DHT22;10970;48.714;9.584;2022-07-11T08:55:31;24.80;99.90
21616;DHT22;10970;48.714;9.584;2022-07-11T08:57:57;24.80;99.90
21616;DHT22;10970;48.714;9.584;2022-07-11T09:00:23;24.80;99.90
21616;DHT22;10970;48.714;9.584;2022-07-11T09:02:49;24.80;99.90
21616;DHT22;10970;48.714;9.584;2022-07-11T09:05:15;25.40;99.90
21616;DHT22;10970;48.714;9.584;2022-07-11T09:07:49;25.70;99.90
21616;DHT22;10970;48.714;9.584;2022-07-11T09:10:16;25.30;99.90
21616;DHT22;10970;48.714;9.584;2022-07-11T09:17:57;25.00;99.90
21616;DHT22;10970;48.714;9.584;2022-07-11T09:20:23;24.40;99.90
21616;DHT22;10970;48.714;9.584;2022-07-11T09:22:49;23.50;99.90
21616;DHT22;10970;48.714;9.584;2022-07-11T09:25:42;22.90;99.90
21616;DHT22;10970;48.714;9.584;2022-07-11T09:28:08;22.80;99.90
21616;DHT22;10970;48.714;9.584;2022-07-11T09:30:35;22.70;99.90
21616;DHT22;10970;48.714;9.584;2022-07-11T09:33:04;22.40;99.90
21616;DHT22;10970;48.714;9.584;2022-07-11T09:35:31;22.50;99.90
21616;DHT22;10970;48.714;9.584;2022-07-11T09:37:59;22.60;99.90
21616;DHT22;10970;48.714;9.584;2022-07-11T09:40:27;22.90;99.90
21616;DHT22;10970;48.714;9.584;2022-07-11T09:42:57;23.40;99.90
21616;DHT22;10970;48.714;9.584;2022-07-11T09:45:25;24.60;99.90
21616;DHT22;10970;48.714;9.584;2022-07-11T09:47:56;24.20;99.90
21616;DHT22;10970;48.714;9.584;2022-07-11T09:50:27;23.40;99.90
21616;DHT22;10970;48.714;9.584;2022-07-11T09:55:41;22.80;99.90
21616;DHT22;10970;48.714;9.584;2022-07-11T09:58:09;23.20;99.90
21616;DHT22;10970;48.714;9.584;2022-07-11T10:00:36;23.10;99.90
21616;DHT22;10970;48.714;9.584;2022-07-11T10:03:03;23.30;99.90
21616;DHT22;10970;48.714;9.584;2022-07-11T10:05:29;23.40;99.90
21616;DHT22;10970;48.714;9.584;2022-07-11T10:07:56;23.30;99.90
21616;DHT22;10970;48.714;9.584;2022-07-11T10:10:23;23.30;99.90
21616;DHT22;10970;48.714;9.584;2022-07-11T10:12:51;23.40;99.90
21616;DHT22;10970;48.714;9.584;2022-07-11T10:15:21;23.60;99.90
21616;DHT22;10970;48.714;9.584;2022-07-11T10:26:10;23.00;99.90
21616;DHT22;10970;48.714;9.584;2022-07-11T10:28:47;22.70;99.90
21616;DHT22;10970;48.714;9.584;2022-07-11T10:31:20;22.90;99.90
21616;DHT22;10970;48.714;9.584;2022-07-11T10:34:05;23.20;99.90
21616;DHT22;10970;48.714;9.584;2022-07-11T10:36:33;23.20;99.90
21616;DHT22;10970;48.714;9.584;2022-07-11T10:39:16;23.30;99.90
21616;DHT22;10970;48.714;9.584;2022-07-11T10:41:47;23.50;99.90
21616;DHT22;10970;48.714;9.584;2022-07-11T10:44:13;23.70;99.90
21616;DHT22;10970;48.714;9.584;2022-07-11T10:46:38;23.30;99.90
21616;DHT22;10970;48.714;9.584;2022-07-11T10:49:17;23.40;99.90
21616;DHT22;10970;48.714;9.584;2022-07-11T10:52:07;23.10;99.90
21616;DHT22;10970;48.714;9.584;2022-07-11T10:57:16;22.80;99.90
21616;DHT22;10970;48.714;9.584;2022-07-11T11:00:04;23.10;99.90
21616;DHT22;10970;48.714;9.584;2022-07-11T11:02:32;23.20;99.90
21616;DHT22;10970;48.714;9.584;2022-07-11T11:05:47;22.90;99.90
21616;DHT22;10970;48.714;9.584;2022-07-11T11:16:40;23.00;99.90
21616;DHT22;10970;48.714;9.584;2022-07-11T11:19:06;23.20;99.90
21616;DHT22;10970;48.714;9.584;2022-07-11T11:21:32;23.30;99.90
21616;DHT22;10970;48.714;9.584;2022-07-11T11:26:49;23.20;99.90
21616;DHT22;10970;48.714;9.584;2022-07-11T11:29:21;23.10;99.90
21616;DHT22;10970;48.714;9.584;2022-07-11T11:31:55;23.10;99.90
21616;DHT22;10970;48.714;9.584;2022-07-11T11:34:22;23.40;99.90
21616;DHT22;10970;48.714;9.584;2022-07-11T11:36:56;23.30;99.90
21616;DHT22;10970;48.714;9.584;2022-07-11T11:39:27;23.80;99.90
21616;DHT22;10970;48.714;9.584;2022-07-11T11:41:53;23.70;99.90
21616;DHT22;10970;48.714;9.584;2022-07-11T11:44:19;23.90;99.90
21616;DHT22;10970;48.714;9.584;2022-07-11T11:46:45;24.10;99.90
21616;DHT22;10970;48.714;9.584;2022-07-11T11:49:11;23.90;99.90
21616;DHT22;10970;48.714;9.584;2022-07-11T11:51:36;24.00;99.90
21616;DHT22;10970;48.714;9.584;2022-07-11T11:54:04;23.90;99.90
21616;DHT22;10970;48.714;9.584;2022-07-11T11:56:33;23.60;99.90
21616;DHT22;10970;48.714;9.584;2022-07-11T11:59:01;23.70;99.90
21616;DHT22;10970;48.714;9.584;2022-07-11T12:01:28;23.70;99.90
21616;DHT22;10970;48.714;9.584;2022-07-11T12:03:57;24.00;99.90
21616;DHT22;10970;48.714;9.584;2022-07-11T12:09:03;23.60;99.90
21616;DHT22;10970;48.714;9.584;2022-07-11T12:11:30;23.80;99.90
21616;DHT22;10970;48.714;9.584;2022-07-11T12:13:58;23.60;99.90
21616;DHT22;10970;48.714;9.584;2022-07-11T12:16:24;23.70;99.90
21616;DHT22;10970;48.714;9.584;2022-07-11T12:19:11;23.80;99.90
21616;DHT22;10970;48.714;9.584;2022-07-11T12:21:44;23.80;99.90
21616;DHT22;10970;48.714;9.584;2022-07-11T12:24:16;24.00;99.90
21616;DHT22;10970;48.714;9.584;2022-07-11T12:26:42;23.80;99.90
21616;DHT22;10970;48.714;9.584;2022-07-11T12:29:13;23.60;99.90
21616;DHT22;10970;48.714;9.584;2022-07-11T12:32:10;23.20;99.90
21616;DHT22;10970;48.714;9.584;2022-07-11T12:37:03;23.50;99.90
21616;DHT22;10970;48.714;9.584;2022-07-11T12:39:31;23.50;99.90
21616;DHT22;10970;48.714;9.584;2022-07-11T12:41:58;23.80;99.90
21616;DHT22;10970;48.714;9.584;2022-07-11T12:47:10;23.40;99.90
21616;DHT22;10970;48.714;9.584;2022-07-11T12:49:36;23.10;99.90
21616;DHT22;10970;48.714;9.584;2022-07-11T12:52:02;23.00;99.90
21616;DHT22;10970;48.714;9.584;2022-07-11T12:54:32;22.90;99.90
21616;DHT22;10970;48.714;9.584;2022-07-11T12:57:00;23.00;99.90
21616;DHT22;10970;48.714;9.584;2022-07-11T12:59:30;23.50;99.90
21616;DHT22;10970;48.714;9.584;2022-07-11T13:02:04;23.90;99.90
21616;DHT22;10970;48.714;9.584;2022-07-11T13:04:45;23.90;99.90
21616;DHT22;10970;48.714;9.584;2022-07-11T13:10:06;23.80;99.90
21616;DHT22;10970;48.714;9.584;2022-07-11T13:12:32;23.60;99.90
21616;DHT22;10970;48.714;9.584;2022-07-11T13:15:04;23.50;99.90
21616;DHT22;10970;48.714;9.584;2022-07-11T13:17:51;23.70;99.90
21616;DHT22;10970;48.714;9.584;2022-07-11T13:20:19;23.90;99.90
21616;DHT22;10970;48.714;9.584;2022-07-11T13:22:46;23.90;99.90
21616;DHT22;10970;48.714;9.584;2022-07-11T13:25:13;23.80;99.90
21616;DHT22;10970;48.714;9.584;2022-07-11T13:27:41;23.50;99.90
21616;DHT22;10970;48.714;9.584;2022-07-11T13:30:08;23.50;99.90
21616;DHT22;10970;48.714;9.584;2022-07-11T13:32:38;23.40;99.90
21616;DHT22;10970;48.714;9.584;2022-07-11T13:35:04;23.50;99.90
21616;DHT22;10970;48.714;9.584;2022-07-11T13:37:30;23.70;99.90
21616;DHT22;10970;48.714;9.584;2022-07-11T13:39:56;23.50;99.90
21616;DHT22;10970;48.714;9.584;2022-07-11T13:42:22;23.40;99.90
21616;DHT22;10970;48.714;9.584;2022-07-11T13:44:48;23.10;99.90
21616;DHT22;10970;48.714;9.584;2022-07-11T13:47:13;23.10;99.90
21616;DHT22;10970;48.714;9.584;2022-07-11T13:49:39;23.20;99.90
21616;DHT22;10970;48.714;9.584;2022-07-11T13:52:08;23.30;99.90
21616;DHT22;10970;48.714;9.584;2022-07-11T13:54:33;23.20;99.90
21616;DHT22;10970;48.714;9.584;2022-07-11T13:56:59;23.00;99.90
21616;DHT22;10970;48.714;9.584;2022-07-11T13:59:25;23.10;99.90
21616;DHT22;10970;48.714;9.584;2022-07-11T14:01:51;23.00;99.90
21616;DHT22;10970;48.714;9.584;2022-07-11T14:04:18;22.90;99.90
21616;DHT22;10970;48.714;9.584;2022-07-11T14:06:44;22.90;99.90
21616;DHT22;10970;48.714;9.584;2022-07-11T14:09:10;22.90;99.90
21616;DHT22;10970;48.714;9.584;2022-07-11T14:11:35;22.80;99.90
21616;DHT22;10970;48.714;9.584;2022-07-11T14:14:01;23.00;99.90
21616;DHT22;10970;48.714;9.584;2022-07-11T14:16:27;23.10;99.90
21616;DHT22;10970;48.714;9.584;2022-07-11T14:18:53;23.00;99.90
21616;DHT22;10970;48.714;9.584;2022-07-11T14:21:18;23.20;99.90
21616;DHT22;10970;48.714;9.584;2022-07-11T14:23:44;23.10;99.90
21616;DHT22;10970;48.714;9.584;2022-07-11T14:26:11;23.20;99.90
21616;DHT22;10970;48.714;9.584;2022-07-11T14:28:37;23.30;99.90
21616;DHT22;10970;48.714;9.584;2022-07-11T14:31:03;23.30;99.90
21616;DHT22;10970;48.714;9.584;2022-07-11T14:33:29;23.10;99.90
21616;DHT22;10970;48.714;9.584;2022-07-11T14:35:54;23.30;99.90
21616;DHT22;10970;48.714;9.584;2022-07-11T14:38:20;23.20;99.90
21616;DHT22;10970;48.714;9.584;2022-07-11T14:40:46;23.40;99.90
21616;DHT22;10970;48.714;9.584;2022-07-11T14:43:11;23.40;99.90
21616;DHT22;10970;48.714;9.584;2022-07-11T14:45:37;23.50;99.90
21616;DHT22;10970;48.714;9.584;2022-07-11T14:48:03;23.40;99.90
21616;DHT22;10970;48.714;9.584;2022-07-11T14:50:28;23.10;99.90
21616;DHT22;10970;48.714;9.584;2022-07-11T14:52:54;23.10;99.90
21616;DHT22;10970;48.714;9.584;2022-07-11T14:55:20;23.20;99.90
21616;DHT22;10970;48.714;9.584;2022-07-11T14:57:45;23.20;99.90
21616;DHT22;10970;48.714;9.584;2022-07-11T15:00:11;23.00;99.90
21616;DHT22;10970;48.714;9.584;2022-07-11T15:02:37;23.40;99.90
21616;DHT22;10970;48.714;9.584;2022-07-11T15:05:21;23.50;99.90
21616;DHT22;10970;48.714;9.584;2022-07-11T15:07:47;23.80;99.90
21616;DHT22;10970;48.714;9.584;2022-07-11T15:10:31;23.80;99.90
21616;DHT22;10970;48.714;9.584;2022-07-11T15:13:15;23.80;99.90
21616;DHT22;10970;48.714;9.584;2022-07-11T15:15:41;23.60;99.90
21616;DHT22;10970;48.714;9.584;2022-07-11T15:18:07;23.80;99.90
21616;DHT22;10970;48.714;9.584;2022-07-11T15:20:33;23.90;99.90
21616;DHT22;10970;48.714;9.584;2022-07-11T15:22:59;23.90;99.90
21616;DHT22;10970;48.714;9.584;2022-07-11T15:25:24;23.80;99.90
21616;DHT22;10970;48.714;9.584;2022-07-11T15:27:51;23.60;99.90
21616;DHT22;10970;48.714;9.584;2022-07-11T15:30:16;23.40;99.90
21616;DHT22;10970;48.714;9.584;2022-07-11T15:32:45;23.40;99.90
21616;DHT22;10970;48.714;9.584;2022-07-11T15:35:11;23.30;99.90
21616;DHT22;10970;48.714;9.584;2022-07-11T15:37:37;23.40;99.90
21616;DHT22;10970;48.714;9.584;2022-07-11T15:40:02;23.40;99.90
21616;DHT22;10970;48.714;9.584;2022-07-11T15:42:29;23.40;99.90
21616;DHT22;10970;48.714;9.584;2022-07-11T15:44:54;23.30;99.90
21616;DHT22;10970;48.714;9.584;2022-07-11T15:47:20;23.00;99.90
21616;DHT22;10970;48.714;9.584;2022-07-11T15:49:46;23.00;99.90
21616;DHT22;10970;48.714;9.584;2022-07-11T15:52:12;23.20;99.90
21616;DHT22;10970;48.714;9.584;2022-07-11T15:54:38;23.20;99.90
21616;DHT22;10970;48.714;9.584;2022-07-11T15:57:03;23.40;99.90
21616;DHT22;10970;48.714;9.584;2022-07-11T15:59:29;23.30;99.90
21616;DHT22;10970;48.714;9.584;2022-07-11T16:01:56;23.30;99.90
21616;DHT22;10970;48.714;9.584;2022-07-11T16:04:24;23.30;99.90
21616;DHT22;10970;48.714;9.584;2022-07-11T16:06:51;23.20;99.90
21616;DHT22;10970;48.714;9.584;2022-07-11T16:09:17;23.10;99.90
21616;DHT22;10970;48.714;9.584;2022-07-11T16:11:43;23.10;99.90